Time;durP1;ratioP1;P1;durP2;ratioP2;P2;SDS_P1;SDS_P2;PMS_P1;PMS_P2;Temp;Humidity;BMP_temperature;BMP_pressure;BME280_temperature;BME280_humidity;BME280_pressure;Samples;Min_cycle;Max_cycle;Signal;HPM_P1;HPM_P2
2023/03/28 00:00:37;;;;;;;9.93;3.30;;;;;;;-1.17;100.00;102702.63;5075821;28;20489;-82
2023/03/28 00:03:02;;;;;;;10.95;3.13;;;;;;;-1.23;100.00;102694.91;5075515;28;20470;-83
2023/03/28 00:08:44;;;;;;;8.15;2.90;;;;;;;-1.28;100.00;102698.19;5095918;28;20084;-82
2023/03/28 00:11:17;;;;;;;12.02;3.65;;;;;;;-1.46;100.00;102666.69;5096094;28;20035;-83
2023/03/28 00:13:44;;;;;;;9.20;3.30;;;;;;;-1.27;100.00;102703.31;5095771;28;20031;-81
2023/03/28 00:16:11;;;;;;;8.45;3.58;;;;;;;-1.45;100.00;102681.06;5077337;28;20036;-83
2023/03/28 00:18:37;;;;;;;8.38;3.35;;;;;;;-1.29;100.00;102709.16;5095554;28;20018;-83
2023/03/28 00:21:24;;;;;;;10.02;3.40;;;;;;;-1.34;100.00;102706.56;5095473;28;20461;-82
2023/03/28 00:23:55;;;;;;;11.15;3.67;;;;;;;-1.44;100.00;102692.03;5094945;28;20047;-81
2023/03/28 00:26:23;;;;;;;12.82;3.97;;;;;;;-1.38;100.00;102711.53;5251143;22;20052;-83
2023/03/28 00:28:50;;;;;;;10.57;3.75;;;;;;;-1.73;100.00;102648.50;5094178;28;20025;-83
2023/03/28 00:31:17;;;;;;;12.00;4.18;;;;;;;-1.42;100.00;102702.19;5095358;28;20115;-83
2023/03/28 00:33:46;;;;;;;11.32;3.97;;;;;;;-1.52;100.00;102683.44;5094105;28;20028;-84
2023/03/28 00:36:13;;;;;;;10.13;4.13;;;;;;;-1.56;100.00;102677.50;5095286;28;20032;-83
2023/03/28 00:38:39;;;;;;;11.32;4.30;;;;;;;-1.43;100.00;102701.34;5095434;28;20473;-83
2023/03/28 00:41:04;;;;;;;11.07;3.72;;;;;;;-1.53;100.00;102699.47;5095288;28;20076;-80
2023/03/28 00:43:36;;;;;;;9.85;3.85;;;;;;;-1.48;100.00;102711.38;5095283;28;20024;-84
2023/03/28 00:46:03;;;;;;;12.82;4.05;;;;;;;-1.50;100.00;102707.97;5076978;28;20135;-83
2023/03/28 00:48:28;;;;;;;8.98;4.28;;;;;;;-1.59;100.00;102685.03;5076655;28;20085;-83
2023/03/28 00:51:02;;;;;;;11.13;3.60;;;;;;;-1.51;100.00;102707.97;5094980;28;20119;-83
2023/03/28 00:53:30;;;;;;;11.50;3.97;;;;;;;-1.52;100.00;102706.25;5077871;28;20043;-82
2023/03/28 00:56:03;;;;;;;12.20;4.07;;;;;;;-1.59;100.00;102707.81;5094908;28;20043;-83
2023/03/28 00:58:31;;;;;;;13.18;3.85;;;;;;;-1.64;100.00;102694.25;5094907;28;20028;-83
2023/03/28 01:00:57;;;;;;;11.50;4.10;;;;;;;-1.58;100.00;102713.75;5094681;28;20373;-80
2023/03/28 01:03:27;;;;;;;13.70;3.85;;;;;;;-1.61;100.00;102708.63;5076748;28;20035;-79
2023/03/28 01:05:53;;;;;;;11.52;4.05;;;;;;;-1.88;100.00;102666.78;5094865;28;20050;-79
2023/03/28 01:08:22;;;;;;;10.57;3.88;;;;;;;-1.85;100.00;102674.47;5094599;28;20027;-78
2023/03/28 01:10:47;;;;;;;9.18;3.80;;;;;;;-1.67;100.00;102706.84;5094806;28;20035;-82
2023/03/28 01:13:17;;;;;;;9.23;3.97;;;;;;;-1.88;100.00;102673.53;5094385;28;20093;-81
2023/03/28 01:15:43;;;;;;;10.80;3.65;;;;;;;-1.73;100.00;102701.66;5094464;28;20047;-82
2023/03/28 01:18:10;;;;;;;12.00;3.97;;;;;;;-2.06;100.00;102649.63;5094448;28;20128;-82
2023/03/28 01:21:05;;;;;;;10.52;4.47;;;;;;;-1.78;100.00;102703.25;5076556;28;20505;-81
2023/03/28 01:24:00;;;;;;;10.25;4.03;;;;;;;-1.78;100.00;102698.19;5076150;28;20035;-83
2023/03/28 01:26:39;;;;;;;10.52;3.92;;;;;;;-1.85;100.00;102692.19;5094137;28;20090;-83
2023/03/28 01:29:27;;;;;;;10.70;4.57;;;;;;;-1.88;100.00;102691.25;5094414;28;20036;-80
2023/03/28 01:32:16;;;;;;;8.77;3.72;;;;;;;-1.88;100.00;102688.72;5094301;28;20036;-79
2023/03/28 01:35:00;;;;;;;9.23;3.80;;;;;;;-1.92;100.00;102690.34;5093970;28;20067;-82
2023/03/28 01:37:37;;;;;;;14.20;4.72;;;;;;;-1.96;100.00;102693.66;5089128;28;20038;-79
2023/03/28 01:40:15;;;;;;;9.55;4.25;;;;;;;-2.42;100.00;102616.88;5055501;28;20032;-83
2023/03/28 01:43:10;;;;;;;9.23;4.10;;;;;;;-1.99;100.00;102693.59;5073778;28;20021;-78
2023/03/28 01:46:14;;;;;;;8.60;4.20;;;;;;;-1.99;100.00;102690.22;5073698;28;20418;-78
2023/03/28 01:48:54;;;;;;;9.43;4.03;;;;;;;-1.98;100.00;102686.84;5073077;28;20083;-78
2023/03/28 01:51:37;;;;;;;10.77;4.45;;;;;;;-1.98;100.00;102682.63;5073235;28;20032;-78
2023/03/28 01:54:21;;;;;;;9.88;4.68;;;;;;;-2.00;100.00;102673.31;5073524;28;20032;-80
2023/03/28 01:56:59;;;;;;;10.60;4.82;;;;;;;-2.16;100.00;102654.47;5073445;28;20032;-78
2023/03/28 01:59:33;;;;;;;11.85;5.03;;;;;;;-2.02;100.00;102680.88;5073443;28;20454;-78
2023/03/28 02:02:08;;;;;;;11.77;4.32;;;;;;;-2.10;100.00;102657.09;5073241;28;20031;-78
2023/03/28 02:04:37;;;;;;;11.48;4.82;;;;;;;-1.99;100.00;102678.41;5073616;28;20421;-79
2023/03/28 02:07:03;;;;;;;13.18;4.93;;;;;;;-1.99;100.00;102680.06;5073413;28;20081;-78
2023/03/28 02:09:31;;;;;;;13.80;5.07;;;;;;;-2.24;100.00;102649.25;5073228;28;20024;-78
2023/03/28 02:12:07;;;;;;;13.52;4.30;;;;;;;-2.05;100.00;102681.69;5073290;28;20028;-78
2023/03/28 02:14:37;;;;;;;9.15;4.30;;;;;;;-2.34;100.00;102654.97;5073081;28;20041;-78
2023/03/28 02:17:08;;;;;;;10.85;4.80;;;;;;;-2.11;100.00;102688.31;5073447;28;20036;-78
2023/03/28 02:19:36;;;;;;;12.32;5.15;;;;;;;-2.38;100.00;102643.06;5073320;28;20025;-79
2023/03/28 02:22:13;;;;;;;11.82;4.97;;;;;;;-2.10;100.00;102682.41;5073059;28;20435;-79
2023/03/28 02:24:39;;;;;;;11.65;4.75;;;;;;;-2.10;100.00;102688.31;5072802;28;20100;-78
2023/03/28 02:27:07;;;;;;;13.35;5.28;;;;;;;-2.10;100.00;102683.25;5072767;28;20550;-79
2023/03/28 02:29:36;;;;;;;11.35;5.28;;;;;;;-2.40;100.00;102632.91;5073013;28;20028;-78
2023/03/28 02:32:02;;;;;;;11.88;5.25;;;;;;;-2.22;100.00;102662.78;5073070;28;20024;-78
2023/03/28 02:34:27;;;;;;;12.75;5.65;;;;;;;-2.13;100.00;102670.56;5072964;28;20178;-82
2023/03/28 02:37:10;;;;;;;11.27;5.50;;;;;;;-2.20;100.00;102670.41;5072827;28;20135;-77
2023/03/28 02:39:45;;;;;;;16.77;5.35;;;;;;;-2.14;100.00;102678.97;5072849;28;20488;-79
2023/03/28 02:42:50;;;;;;;14.20;5.40;;;;;;;-2.14;100.00;102678.13;5072730;28;20067;-79
2023/03/28 02:45:30;;;;;;;11.07;4.88;;;;;;;-2.31;100.00;102655.03;5054711;28;20032;-79
2023/03/28 02:48:35;;;;;;;12.80;5.38;;;;;;;-2.16;100.00;102683.16;5096955;22;20050;-78
2023/03/28 02:57:53;;;;;;;11.77;4.90;;;;;;;-3.27;100.00;102509.81;5092461;28;20039;-79
2023/03/28 03:00:20;;;;;;;12.68;5.18;;;;;;;-2.43;100.00;102653.13;5092110;28;20046;-80
2023/03/28 03:02:49;;;;;;;11.18;5.53;;;;;;;-2.48;100.00;102647.09;5092564;28;20115;-82
2023/03/28 03:05:15;;;;;;;11.43;5.63;;;;;;;-2.36;100.00;102664.19;5065801;28;20052;-79
2023/03/28 03:07:41;;;;;;;11.15;5.35;;;;;;;-2.32;100.00;102669.34;5092586;28;20093;-82
2023/03/28 03:10:10;;;;;;;11.45;5.07;;;;;;;-2.57;100.00;102631.72;5092854;28;20032;-78
2023/03/28 03:12:35;;;;;;;12.77;5.03;;;;;;;-2.35;100.00;102666.78;5074428;28;20036;-80
2023/03/28 03:15:02;;;;;;;15.00;5.90;;;;;;;-2.59;100.00;102625.78;5092504;28;20028;-81
2023/03/28 03:17:28;;;;;;;13.55;5.40;;;;;;;-2.41;100.00;102670.84;5092579;28;20109;-82
2023/03/28 03:19:54;;;;;;;12.40;5.93;;;;;;;-2.49;100.00;102652.97;5092397;28;20123;-81
2023/03/28 03:22:20;;;;;;;13.20;5.80;;;;;;;-2.63;100.00;102635.00;5092221;28;20534;-80
2023/03/28 03:24:47;;;;;;;16.10;5.38;;;;;;;-2.45;100.00;102666.56;5092616;28;20555;-79
2023/03/28 03:27:13;;;;;;;12.10;5.65;;;;;;;-2.54;100.00;102661.31;5092481;28;20054;-79
2023/03/28 03:29:38;;;;;;;11.52;6.25;;;;;;;-2.41;100.00;102674.22;5092492;28;20028;-78
2023/03/28 03:32:04;;;;;;;12.25;6.03;;;;;;;-2.51;100.00;102666.44;5092445;28;20033;-82
2023/03/28 03:34:32;;;;;;;12.13;5.78;;;;;;;-2.51;100.00;102669.81;5091990;28;20036;-81
2023/03/28 03:36:59;;;;;;;12.13;5.70;;;;;;;-2.47;100.00;102680.81;5092328;28;20443;-82
2023/03/28 03:39:24;;;;;;;11.30;6.35;;;;;;;-2.68;100.00;102645.84;5092261;28;20099;-83
2023/03/28 03:41:50;;;;;;;14.13;6.65;;;;;;;-2.47;100.00;102680.81;5092277;28;20158;-82
2023/03/28 03:44:15;;;;;;;13.77;6.45;;;;;;;-2.53;100.00;102663.03;5092205;28;20031;-83
2023/03/28 03:46:40;;;;;;;13.63;6.38;;;;;;;-2.53;100.00;102663.88;5092161;28;20038;-82
2023/03/28 03:49:08;;;;;;;12.77;6.30;;;;;;;-2.47;100.00;102673.25;5091797;28;20046;-82
2023/03/28 03:51:33;;;;;;;12.50;6.22;;;;;;;-2.63;100.00;102651.84;5074486;28;20384;-81
2023/03/28 03:53:59;;;;;;;12.95;6.85;;;;;;;-2.62;100.00;102658.63;5092106;28;20024;-83
2023/03/28 03:56:24;;;;;;;11.80;6.13;;;;;;;-2.95;100.00;102605.66;5092007;28;20119;-83
2023/03/28 03:58:50;;;;;;;11.65;6.60;;;;;;;-2.58;100.00;102664.59;5092142;28;20103;-83
2023/03/28 04:01:15;;;;;;;16.73;6.70;;;;;;;-2.62;100.00;102667.06;5073461;28;20042;-83
2023/03/28 04:03:41;;;;;;;13.35;6.97;;;;;;;-2.58;100.00;102678.06;5091865;28;20119;-81
2023/03/28 04:06:07;;;;;;;11.80;7.00;;;;;;;-2.58;100.00;102683.13;5092012;28;20032;-83
2023/03/28 04:08:33;;;;;;;14.35;6.95;;;;;;;-2.64;100.00;102667.84;5094659;28;20102;-82
2023/03/28 04:10:58;;;;;;;13.35;7.65;;;;;;;-2.71;100.00;102651.69;5095853;28;20111;-81
2023/03/28 04:13:24;;;;;;;12.35;7.45;;;;;;;-2.64;100.00;102675.44;5095695;28;20032;-83
2023/03/28 04:15:50;;;;;;;13.10;7.50;;;;;;;-2.67;100.00;102662.72;5095619;28;20032;-80
2023/03/28 04:18:16;;;;;;;13.52;7.60;;;;;;;-2.67;100.00;102672.81;5095622;28;20024;-82
2023/03/28 04:20:45;;;;;;;13.73;8.32;;;;;;;-2.69;100.00;102682.91;5095385;28;20031;-82
2023/03/28 04:23:11;;;;;;;14.23;7.22;;;;;;;-2.68;100.00;102671.13;5095270;28;20104;-83
2023/03/28 04:25:40;;;;;;;16.60;8.10;;;;;;;-2.93;100.00;102637.75;5095590;28;20115;-82
2023/03/28 04:28:08;;;;;;;14.85;8.60;;;;;;;-2.71;100.00;102668.53;5095690;28;20099;-82
2023/03/28 04:30:33;;;;;;;14.27;7.85;;;;;;;-2.84;100.00;102641.31;5094099;28;20028;-83
2023/03/28 04:33:00;;;;;;;15.65;8.65;;;;;;;-2.73;100.00;102660.94;5095383;28;20107;-83
2023/03/28 04:35:28;;;;;;;17.38;8.30;;;;;;;-2.79;100.00;102663.31;5095085;28;20085;-82
2023/03/28 04:37:56;;;;;;;13.02;8.38;;;;;;;-2.78;100.00;102665.00;5095206;28;20023;-81
2023/03/28 04:40:22;;;;;;;12.18;8.05;;;;;;;-2.87;100.00;102642.06;5095142;28;20475;-77
2023/03/28 04:42:47;;;;;;;12.40;8.52;;;;;;;-3.09;100.00;102617.16;5094836;28;20020;-77
2023/03/28 04:45:13;;;;;;;14.00;9.00;;;;;;;-2.83;100.00;102666.59;5094897;28;20069;-77
2023/03/28 04:47:38;;;;;;;18.42;10.65;;;;;;;-2.80;100.00;102659.06;5095130;28;20035;-78
2023/03/28 04:50:06;;;;;;;16.30;10.68;;;;;;;-2.80;100.00;102664.13;5094719;28;20489;-78
2023/03/28 04:52:31;;;;;;;18.65;11.18;;;;;;;-2.83;100.00;102653.13;5076875;28;20024;-78
2023/03/28 04:54:56;;;;;;;18.00;11.35;;;;;;;-2.74;100.00;102665.97;5094918;28;20043;-78
2023/03/28 04:57:22;;;;;;;22.33;11.68;;;;;;;-2.73;100.00;102662.59;5094622;28;20069;-78
2023/03/28 04:59:47;;;;;;;23.38;12.13;;;;;;;-2.74;100.00;102660.91;5094854;28;20031;-78
2023/03/28 05:02:13;;;;;;;21.52;13.20;;;;;;;-3.17;100.00;102589.19;5094877;28;20809;-77
2023/03/28 05:04:39;;;;;;;21.65;12.23;;;;;;;-2.73;100.00;102672.72;5094721;28;20048;-78
2023/03/28 05:07:04;;;;;;;20.70;12.38;;;;;;;-2.92;100.00;102641.13;5094681;28;20020;-78
2023/03/28 05:09:30;;;;;;;20.38;12.93;;;;;;;-2.97;100.00;102625.84;5094498;28;20051;-78
2023/03/28 05:11:55;;;;;;;22.70;13.32;;;;;;;-2.88;100.00;102643.75;5094374;28;20453;-78
2023/03/28 05:14:21;;;;;;;26.48;13.88;;;;;;;-2.96;100.00;102635.13;5093668;28;20059;-79
2023/03/28 05:16:46;;;;;;;22.95;13.65;;;;;;;-2.96;100.00;102634.28;5094062;28;20028;-82
2023/03/28 05:19:11;;;;;;;21.45;13.90;;;;;;;-2.64;100.00;102677.97;5093526;28;20024;-78
2023/03/28 05:21:37;;;;;;;21.63;14.25;;;;;;;-2.63;100.00;102672.94;5093895;28;20024;-78
2023/03/28 05:24:02;;;;;;;24.33;15.10;;;;;;;-2.63;100.00;102665.34;5094083;28;20119;-77
2023/03/28 05:26:29;;;;;;;21.80;14.43;;;;;;;-2.74;100.00;102640.66;5094030;28;20089;-79
2023/03/28 05:28:55;;;;;;;20.10;14.05;;;;;;;-2.45;100.00;102685.13;5093930;28;20104;-79
2023/03/28 05:31:24;;;;;;;21.13;13.95;;;;;;;-2.62;100.00;102653.56;5093975;28;20073;-78
2023/03/28 05:33:50;;;;;;;25.30;14.68;;;;;;;-2.42;100.00;102695.28;5093842;28;20281;-79
2023/03/28 05:36:15;;;;;;;21.33;14.50;;;;;;;-2.56;100.00;102670.53;5093667;28;20457;-79
2023/03/28 05:38:41;;;;;;;21.73;14.55;;;;;;;-2.58;100.00;102662.91;5093713;28;20028;-77
2023/03/28 05:41:06;;;;;;;20.88;14.55;;;;;;;-2.67;100.00;102655.97;5075759;28;20103;-79
2023/03/28 05:43:31;;;;;;;21.45;16.08;;;;;;;-2.62;100.00;102659.47;5135855;22;20067;-79
2023/03/28 05:45:57;;;;;;;28.70;16.00;;;;;;;-2.60;100.00;102660.34;5113918;28;20020;-78
2023/03/28 05:48:22;;;;;;;24.88;15.23;;;;;;;-2.38;100.00;102694.53;5113658;28;20016;-78
2023/03/28 05:50:49;;;;;;;24.15;15.70;;;;;;;-2.55;100.00;102657.06;5113911;28;20023;-79
2023/03/28 05:53:15;;;;;;;24.98;15.77;;;;;;;-2.29;100.00;102700.59;5112494;28;20119;-79
2023/03/28 05:58:17;;;;;;;24.20;15.30;;;;;;;-2.48;100.00;102654.69;5111803;22;20048;-79
2023/03/28 06:00:43;;;;;;;22.90;15.15;;;;;;;-2.16;100.00;102693.28;5093391;28;20024;-80
2023/03/28 06:03:09;;;;;;;25.30;16.17;;;;;;;-2.37;100.00;102653.22;5093385;28;20032;-79
2023/03/28 06:05:35;;;;;;;22.73;15.20;;;;;;;-2.03;100.00;102694.38;5092938;28;20036;-77
2023/03/28 06:08:01;;;;;;;28.02;16.02;;;;;;;-2.07;100.00;102669.81;5079464;28;20025;-75
2023/03/28 06:10:26;;;;;;;20.42;14.95;;;;;;;-1.83;100.00;102685.47;5073489;28;20107;-77
2023/03/28 06:12:52;;;;;;;20.08;14.50;;;;;;;-1.80;100.00;102672.00;5054857;28;20105;-78
2023/03/28 06:15:17;;;;;;;19.02;15.05;;;;;;;-1.64;100.00;102668.06;5072601;28;20500;-76
2023/03/28 06:17:42;;;;;;;24.50;15.45;;;;;;;-1.81;100.00;102617.13;5445119;22;20044;-77
2023/03/28 06:20:09;;;;;;;24.48;14.60;;;;;;;-1.31;100.00;102680.41;5072758;28;20432;-77
2023/03/28 06:22:35;;;;;;;23.77;15.85;;;;;;;-1.33;100.00;102644.91;5060416;28;20032;-82
2023/03/28 06:25:02;;;;;;;21.30;14.98;;;;;;;-1.09;100.00;102651.16;5034639;28;20071;-76
2023/03/28 06:27:28;;;;;;;23.48;16.73;;;;;;;-0.85;100.00;102668.41;5070653;28;20063;-77
2023/03/28 06:29:53;;;;;;;24.02;16.08;;;;;;;-0.79;100.00;102650.72;5073187;28;20029;-78
2023/03/28 06:32:19;;;;;;;28.23;18.23;;;;;;;-0.25;100.00;102688.63;5071613;28;20090;-80
2023/03/28 06:34:45;;;;;;;33.67;19.77;;;;;;;0.86;100.00;102692.22;5072315;28;20032;-79
2023/03/28 06:37:10;;;;;;;25.80;18.08;;;;;;;2.19;100.00;102664.78;5072292;28;20027;-78
2023/03/28 06:39:35;;;;;;;19.13;15.05;;;;;;;3.19;100.00;102664.69;5071380;28;20028;-82
2023/03/28 06:42:02;;;;;;;21.42;14.85;;;;;;;3.92;94.40;102692.47;5072322;28;20040;-78
2023/03/28 06:44:28;;;;;;;19.15;13.43;;;;;;;3.95;88.60;102690.75;5072433;28;20021;-80
2023/03/28 06:46:54;;;;;;;18.77;12.95;;;;;;;3.66;87.38;102690.91;5072513;28;20401;-78
2023/03/28 06:49:20;;;;;;;20.45;12.70;;;;;;;3.09;88.13;102662.16;5072347;28;20032;-79
2023/03/28 06:51:45;;;;;;;19.23;12.15;;;;;;;2.81;89.24;102666.47;5072005;28;20025;-78
2023/03/28 06:54:10;;;;;;;17.52;12.02;;;;;;;2.74;90.55;102684.31;5070877;28;20059;-80
2023/03/28 06:56:38;;;;;;;17.83;11.93;;;;;;;2.48;90.61;102664.78;5411027;22;20055;-80
2023/03/28 06:59:04;;;;;;;16.98;11.55;;;;;;;2.45;91.73;102657.13;5112603;28;20431;-80
2023/03/28 07:01:29;;;;;;;19.63;12.07;;;;;;;3.05;91.67;102698.75;5112620;28;20028;-79
2023/03/28 07:03:58;;;;;;;17.52;12.02;;;;;;;3.54;87.67;102654.31;5112585;28;20456;-80
2023/03/28 07:06:24;;;;;;;19.58;11.50;;;;;;;4.63;85.01;102701.38;5111921;28;20453;-78
2023/03/28 07:08:49;;;;;;;18.17;10.77;;;;;;;5.29;80.50;102670.00;5113227;28;20373;-77
2023/03/28 07:11:15;;;;;;;17.13;10.40;;;;;;;5.97;77.22;102693.94;5112708;28;20105;-81
2023/03/28 07:13:40;;;;;;;18.35;10.32;;;;;;;5.53;76.00;102684.25;5111174;28;20480;-83
2023/03/28 07:16:10;;;;;;;20.63;10.25;;;;;;;4.71;77.57;102696.16;5112453;28;20400;-83
2023/03/28 07:18:35;;;;;;;17.58;10.93;;;;;;;2.80;81.10;102493.84;5637671;22;20101;-82
2023/03/28 07:21:12;;;;;;;16.33;11.60;;;;;;;3.61;84.51;102713.06;5111219;28;20047;-82
2023/03/28 07:23:38;;;;;;;16.27;10.40;;;;;;;3.22;85.77;102695.31;5111248;28;20097;-80
2023/03/28 07:26:05;;;;;;;14.73;9.93;;;;;;;3.05;87.73;102710.69;5112878;28;20469;-80
2023/03/28 07:28:31;;;;;;;20.52;10.65;;;;;;;2.79;88.29;102697.94;5112679;28;20024;-81
2023/03/28 07:30:56;;;;;;;18.25;10.25;;;;;;;2.71;89.15;102710.69;5113014;28;20110;-82
2023/03/28 07:33:22;;;;;;;20.63;10.15;;;;;;;2.43;89.83;102688.56;5112817;28;20023;-82
2023/03/28 07:35:47;;;;;;;16.15;10.20;;;;;;;2.50;90.72;102711.53;5112794;28;20069;-80
2023/03/28 07:38:13;;;;;;;17.05;9.52;;;;;;;2.40;91.51;102699.63;5112720;28;20056;-81
2023/03/28 07:40:38;;;;;;;16.35;10.02;;;;;;;2.33;91.70;102700.47;5112731;28;20031;-80
2023/03/28 07:43:03;;;;;;;14.75;9.45;;;;;;;2.10;92.71;102658.81;5114873;28;20066;-80
2023/03/28 07:45:29;;;;;;;18.77;10.43;;;;;;;2.58;93.38;102707.28;5116924;28;20031;-79
2023/03/28 07:47:54;;;;;;;18.45;9.02;;;;;;;2.61;93.12;102701.34;5116571;28;20024;-81
2023/03/28 07:50:21;;;;;;;13.98;8.35;;;;;;;2.75;91.74;102714.06;5116779;28;20028;-81
2023/03/28 07:52:47;;;;;;;16.52;8.40;;;;;;;2.81;91.47;102714.09;5116723;28;20016;-79
2023/03/28 07:55:13;;;;;;;17.63;8.18;;;;;;;2.92;91.09;102716.63;5114716;28;20408;-79
2023/03/28 07:57:39;;;;;;;16.95;9.20;;;;;;;2.88;91.94;102674.97;5116721;28;20465;-80
2023/03/28 08:00:16;;;;;;;14.73;7.78;;;;;;;3.11;90.97;102680.00;5116488;28;20019;-82
2023/03/28 08:02:41;;;;;;;11.75;7.00;;;;;;;3.24;89.20;102670.63;5116623;28;20019;-79
2023/03/28 08:05:07;;;;;;;14.73;7.18;;;;;;;3.22;88.13;102657.00;5116421;28;20030;-79
2023/03/28 08:07:33;;;;;;;16.98;7.07;;;;;;;3.65;88.45;102709.66;5116307;28;20027;-79
2023/03/28 08:09:58;;;;;;;13.45;6.57;;;;;;;3.81;86.99;102715.53;5116565;28;20396;-81
2023/03/28 08:12:24;;;;;;;13.57;6.97;;;;;;;3.96;87.00;102712.06;5116191;28;20031;-82
2023/03/28 08:14:49;;;;;;;13.23;5.45;;;;;;;4.12;84.63;102715.34;5116091;28;20039;-78
2023/03/28 08:17:15;;;;;;;12.90;7.30;;;;;;;4.34;85.43;102709.28;5116451;28;20020;-80
2023/03/28 08:19:40;;;;;;;13.95;6.18;;;;;;;4.53;84.10;102705.72;5116235;28;20497;-79
2023/03/28 08:22:06;;;;;;;10.00;5.05;;;;;;;4.67;83.12;102697.91;5116363;28;20380;-80
2023/03/28 08:24:32;;;;;;;14.32;5.70;;;;;;;4.64;80.68;102669.81;5114979;28;20045;-80
2023/03/28 08:26:57;;;;;;;13.38;5.38;;;;;;;4.78;80.60;102673.06;5115998;28;20460;-79
2023/03/28 08:29:23;;;;;;;12.48;5.43;;;;;;;5.09;80.00;102712.03;5114702;28;20034;-78
2023/03/28 08:31:48;;;;;;;13.85;4.82;;;;;;;5.13;79.16;102713.72;5116017;28;20015;-80
2023/03/28 08:34:14;;;;;;;10.27;5.03;;;;;;;5.19;77.91;102712.78;5116296;28;20031;-80
2023/03/28 08:36:43;;;;;;;10.52;4.82;;;;;;;4.79;78.94;102617.63;5115972;28;20026;-79
2023/03/28 08:39:08;;;;;;;13.77;4.75;;;;;;;4.69;77.56;102575.06;5097691;28;20373;-80
2023/03/28 08:41:39;;;;;;;12.88;5.35;;;;;;;5.55;77.30;102700.44;5115773;28;20080;-79
2023/03/28 08:44:15;;;;;;;10.45;4.30;;;;;;;5.59;76.19;102707.22;5115543;28;20073;-79
2023/03/28 08:46:44;;;;;;;9.40;4.00;;;;;;;5.59;74.75;102694.41;5115771;28;20373;-81
2023/03/28 08:49:18;;;;;;;11.77;4.68;;;;;;;5.71;75.50;102697.69;5115707;28;20023;-80
2023/03/28 08:52:04;;;;;;;10.35;4.80;;;;;;;5.67;76.22;102674.66;5115372;28;20089;-81
2023/03/28 08:54:35;;;;;;;10.55;3.75;;;;;;;5.97;72.44;102693.94;5114260;28;20103;-79
2023/03/28 08:57:02;;;;;;;;;;;;;;;6.11;73.73;102696.31;5115892;28;20417;-84
2023/03/28 08:59:55;;;;;;;13.38;4.10;;;;;;;6.06;73.63;102682.69;5115629;28;19912;-78
2023/03/28 09:02:25;;;;;;;8.23;3.60;;;;;;;6.14;69.92;102697.13;5113330;28;20039;-81
2023/03/28 09:04:51;;;;;;;7.90;2.90;;;;;;;6.16;68.71;102689.38;5115486;28;20023;-78
2023/03/28 09:07:34;;;;;;;7.22;2.60;;;;;;;6.31;69.37;102691.75;5115242;28;20028;-78
2023/03/28 09:10:17;;;;;;;7.90;3.05;;;;;;;6.43;69.12;102686.41;5114888;28;20035;-77
2023/03/28 09:12:57;;;;;;;8.65;2.63;;;;;;;6.33;66.53;102666.91;5114968;28;20035;-81
2023/03/28 09:15:58;;;;;;;6.95;2.65;;;;;;;6.54;66.07;102692.22;5115014;28;20027;-79
2023/03/28 09:18:59;;;;;;;9.85;2.83;;;;;;;6.67;66.76;102686.88;5113768;28;20122;-78
2023/03/28 09:21:47;;;;;;;7.32;2.70;;;;;;;6.77;64.38;102680.69;5115232;28;20038;-80
2023/03/28 09:24:28;;;;;;;8.98;2.67;;;;;;;6.76;64.08;102679.00;5032081;28;20045;-78
2023/03/28 09:27:02;;;;;;;7.85;2.30;;;;;;;6.80;64.26;102678.94;5031812;28;20609;-79
2023/03/28 09:29:33;;;;;;;7.53;2.20;;;;;;;6.95;65.83;102688.09;5032137;28;20570;-76
2023/03/28 09:32:19;;;;;;;7.93;2.97;;;;;;;7.02;64.80;102673.41;5032173;28;20029;-82
2023/03/28 09:34:48;;;;;;;8.35;2.45;;;;;;;6.90;64.13;102641.94;5031940;28;20549;-78
2023/03/28 09:39:53;;;;;;;9.10;3.58;;;;;;;7.09;59.71;102665.56;5836442;22;20056;-79
2023/03/28 09:42:34;;;;;;;7.25;2.35;;;;;;;7.15;62.41;102665.44;5094394;28;20358;-78
2023/03/28 09:45:31;;;;;;;9.75;2.72;;;;;;;7.14;61.18;102665.47;5094142;28;20478;-80
2023/03/28 09:47:56;;;;;;;9.68;2.42;;;;;;;6.74;60.53;102634.53;5094046;28;20069;-78
2023/03/28 09:50:22;;;;;;;6.95;2.22;;;;;;;6.69;61.48;102620.97;5093824;28;20477;-78
2023/03/28 09:52:52;;;;;;;8.57;2.85;;;;;;;6.79;62.58;102610.50;5093583;28;20024;-79
2023/03/28 09:55:27;;;;;;;10.68;2.67;;;;;;;7.02;60.90;102632.31;5093824;28;20020;-77
2023/03/28 09:58:02;;;;;;;9.70;2.55;;;;;;;7.17;60.75;102647.41;5093770;28;20035;-79
2023/03/28 10:00:28;;;;;;;7.78;1.95;;;;;;;7.03;59.04;102608.31;5093687;28;20020;-79
2023/03/28 10:02:54;;;;;;;4.72;2.10;;;;;;;6.96;60.31;102576.75;5093562;28;20058;-80
2023/03/28 10:05:33;;;;;;;5.75;1.90;;;;;;;7.54;60.48;102634.66;5093486;28;20119;-78
2023/03/28 10:08:03;;;;;;;7.80;2.30;;;;;;;7.63;59.21;102637.03;5081341;28;20028;-75
2023/03/28 10:10:29;;;;;;;5.32;1.73;;;;;;;7.41;58.63;102603.25;5074078;28;20036;-77
2023/03/28 10:12:57;;;;;;;7.78;2.38;;;;;;;7.45;58.41;102597.16;5073396;28;20024;-79
2023/03/28 10:15:44;;;;;;;7.07;2.38;;;;;;;7.66;59.40;102623.25;5054970;28;20033;-79
2023/03/28 10:18:17;;;;;;;9.25;3.22;;;;;;;7.50;59.04;102591.06;5073351;28;20351;-80
2023/03/28 10:20:42;;;;;;;7.75;2.80;;;;;;;7.72;59.23;102610.28;5073266;28;20025;-78
2023/03/28 10:23:11;;;;;;;4.88;2.08;;;;;;;7.70;56.84;102604.34;5073123;28;20496;-80
2023/03/28 10:25:41;;;;;;;6.22;1.85;;;;;;;7.59;57.09;102591.72;5073199;28;20028;-79
2023/03/28 10:28:14;;;;;;;5.53;2.03;;;;;;;7.80;58.58;102607.53;5072874;28;20028;-78
2023/03/28 10:30:40;;;;;;;6.63;2.00;;;;;;;7.58;56.00;102574.59;5072689;28;20519;-76
2023/03/28 10:33:15;;;;;;;9.75;2.17;;;;;;;7.78;54.43;102602.44;5072888;28;20032;-76
2023/03/28 10:35:44;;;;;;;5.93;1.80;;;;;;;7.39;54.45;102527.06;5072711;28;20028;-76
2023/03/28 10:38:23;;;;;;;7.20;1.73;;;;;;;7.98;55.20;102589.97;5072931;28;20028;-76
2023/03/28 10:41:00;;;;;;;5.53;1.90;;;;;;;7.92;55.67;102587.50;5072512;28;20112;-77
2023/03/28 10:43:38;;;;;;;6.10;1.98;;;;;;;8.03;58.13;102582.94;5072569;28;20032;-76
2023/03/28 10:46:23;;;;;;;7.63;1.98;;;;;;;8.02;57.53;102557.28;5073375;28;20092;-79
2023/03/28 10:48:54;;;;;;;8.98;2.00;;;;;;;7.79;56.91;102532.13;5072725;28;20020;-79
2023/03/28 10:51:23;;;;;;;9.13;2.30;;;;;;;7.95;54.46;102576.31;5072665;28;20362;-77
2023/03/28 10:54:03;;;;;;;8.50;2.20;;;;;;;7.90;55.96;102576.44;5072368;28;20111;-81
2023/03/28 10:56:37;;;;;;;6.75;2.65;;;;;;;7.94;55.65;102572.88;5072285;28;20466;-76
2023/03/28 10:59:24;;;;;;;7.32;2.10;;;;;;;8.17;56.75;102572.34;5072586;28;20067;-79
2023/03/28 11:01:59;;;;;;;6.50;2.10;;;;;;;8.38;56.90;102575.28;5072494;28;20025;-80
2023/03/28 11:04:43;;;;;;;7.53;2.33;;;;;;;8.30;55.74;102568.56;5054477;28;20028;-81
2023/03/28 11:07:20;;;;;;;11.20;2.85;;;;;;;7.88;56.37;102534.47;5072704;28;20406;-82
2023/03/28 11:09:58;;;;;;;11.95;2.55;;;;;;;7.65;55.01;102537.56;5072443;28;20024;-80
2023/03/28 11:12:40;;;;;;;6.38;2.00;;;;;;;7.80;55.30;102540.69;5071990;28;20101;-80
2023/03/28 11:15:28;;;;;;;7.30;1.77;;;;;;;7.74;53.68;102531.38;5072598;28;20032;-80
2023/03/28 11:18:09;;;;;;;5.55;1.75;;;;;;;7.66;54.42;102528.97;5071920;28;20095;-81
2023/03/28 11:20:44;;;;;;;5.88;2.45;;;;;;;7.68;54.24;102532.38;5054124;28;20440;-82
2023/03/28 11:23:15;;;;;;;6.13;1.60;;;;;;;7.72;55.83;102523.69;5072131;28;20040;-84
2023/03/28 11:25:43;;;;;;;4.35;1.85;;;;;;;7.71;53.58;102511.72;5080997;28;20039;-82
2023/03/28 11:28:22;;;;;;;8.32;2.00;;;;;;;7.74;53.23;102519.34;5081931;28;20545;-83
2023/03/28 11:47:50;;;;;;;8.13;2.78;;;;;;;7.98;53.39;102471.63;5395595;22;20485;-76
2023/03/28 11:50:29;;;;;;;8.25;2.67;;;;;;;7.95;52.62;102455.41;5071797;28;20419;-81
2023/03/28 11:53:07;;;;;;;11.38;2.70;;;;;;;7.94;54.36;102438.28;5525247;22;20105;-79
2023/03/28 11:55:38;;;;;;;7.03;2.63;;;;;;;8.22;52.78;102466.69;5092333;28;20362;-77
2023/03/28 11:58:18;;;;;;;9.75;3.05;;;;;;;8.29;53.67;102455.34;5092099;28;20024;-77
2023/03/28 12:01:10;;;;;;;7.37;2.33;;;;;;;8.35;54.96;102439.75;5092243;28;20028;-76
2023/03/28 12:04:02;;;;;;;6.78;2.72;;;;;;;8.25;53.51;102408.25;5010002;28;20697;-81